createdAt,value
2023-08-15T00:01:57.879Z,60.73
2023-08-15T00:04:24.601Z,60.58
2023-08-15T00:06:51.227Z,60.44
2023-08-15T00:09:17.833Z,60.65
2023-08-15T00:11:44.469Z,60.52
2023-08-15T00:14:12.258Z,61.31
2023-08-15T00:16:40.305Z,60.85
2023-08-15T00:19:07.183Z,60.14
2023-08-15T00:21:33.855Z,60.67
2023-08-15T00:24:00.472Z,60.59
2023-08-15T00:26:27.099Z,60.02
2023-08-15T00:28:53.736Z,60.45
2023-08-15T00:31:20.507Z,64.68
2023-08-15T00:33:48.527Z,70.17
2023-08-15T00:36:15.192Z,63.07
2023-08-15T00:38:41.822Z,60.78
2023-08-15T00:41:08.618Z,60.14
2023-08-15T00:43:35.230Z,60.56
2023-08-15T00:46:04.370Z,60.18
2023-08-15T00:48:32.632Z,60.47
2023-08-15T00:51:02.132Z,60.35
2023-08-15T00:53:31.282Z,60.04
2023-08-15T00:55:59.158Z,62.34
2023-08-15T00:58:26.743Z,57.67
2023-08-15T01:00:53.805Z,60.75
2023-08-15T01:03:21.040Z,60.28
2023-08-15T01:05:48.798Z,60.48
2023-08-15T01:08:17.131Z,59.82
2023-08-15T01:10:44.836Z,60.11
2023-08-15T01:13:20.395Z,66.95
2023-08-15T01:15:50.965Z,62.57
2023-08-15T01:18:23.920Z,61.67
2023-08-15T01:20:51.644Z,60.73
2023-08-15T01:23:24.737Z,60.18
2023-08-15T01:25:54.934Z,56.07
2023-08-15T01:28:21.569Z,60.69
2023-08-15T01:30:55.364Z,60.28
2023-08-15T01:33:27.291Z,60.01
2023-08-15T01:35:59.818Z,60.04
2023-08-15T01:38:32.526Z,60.22
2023-08-15T01:41:02.272Z,56.56
2023-08-15T01:43:30.314Z,64.81
2023-08-15T01:45:57.549Z,61.26
2023-08-15T01:48:24.286Z,60.74
2023-08-15T01:50:50.995Z,60.16
2023-08-15T01:53:17.616Z,59.86
2023-08-15T01:55:44.214Z,62.10
2023-08-15T01:58:12.173Z,60.34
2023-08-15T02:00:38.817Z,60.35
2023-08-15T02:03:05.619Z,60.28
2023-08-15T02:05:34.939Z,62.08
2023-08-15T02:08:02.627Z,60.25
2023-08-15T02:10:29.250Z,59.79
2023-08-15T02:12:55.859Z,56.88
2023-08-15T02:15:23.867Z,61.48
2023-08-15T02:17:50.508Z,61.72
2023-08-15T02:20:17.340Z,60.41
2023-08-15T02:22:43.977Z,60.62
2023-08-15T02:25:10.610Z,60.29
2023-08-15T02:27:37.207Z,59.93
2023-08-15T02:30:06.083Z,59.84
2023-08-15T02:32:34.097Z,54.91
2023-08-15T02:35:00.862Z,61.26
2023-08-15T02:37:27.488Z,60.97
2023-08-15T02:39:54.065Z,60.25
2023-08-15T02:42:20.669Z,60.52
2023-08-15T02:44:47.258Z,56.68
2023-08-15T02:47:13.865Z,65.23
2023-08-15T02:49:41.790Z,62.45
2023-08-15T02:52:08.501Z,60.84
2023-08-15T02:54:35.139Z,60.23
2023-08-15T02:57:01.764Z,59.86
2023-08-15T02:59:28.439Z,60.12
2023-08-15T03:01:55.086Z,59.69
2023-08-15T03:04:21.759Z,60.74
2023-08-15T03:06:49.756Z,59.65
2023-08-15T03:09:17.962Z,59.72
2023-08-15T03:11:44.605Z,60.08
2023-08-15T03:14:11.551Z,59.69
2023-08-15T03:16:38.141Z,69.29
2023-08-15T03:19:04.887Z,61.65
2023-08-15T03:21:31.986Z,60.23
2023-08-15T03:23:59.968Z,60.65
2023-08-15T03:26:28.553Z,60.21
2023-08-15T03:28:57.269Z,60.43
2023-08-15T03:31:24.276Z,60.29
2023-08-15T03:33:51.084Z,60.08
2023-08-15T03:36:17.714Z,55.18
2023-08-15T03:38:44.459Z,67.08
2023-08-15T03:41:12.486Z,61.52
2023-08-15T03:43:39.176Z,60.43
2023-08-15T03:46:07.244Z,60.03
2023-08-15T03:48:34.365Z,60.06
2023-08-15T03:51:01.972Z,59.79
2023-08-15T03:53:29.347Z,60.00
2023-08-15T03:55:56.151Z,59.81
2023-08-15T03:58:24.720Z,59.65
2023-08-15T04:00:52.058Z,60.04
2023-08-15T04:03:18.719Z,59.92
2023-08-15T04:05:46.052Z,59.84
2023-08-15T04:08:12.963Z,59.67
2023-08-15T04:10:42.477Z,61.13
2023-08-15T04:13:09.545Z,64.36
2023-08-15T04:15:38.325Z,60.96
2023-08-15T04:18:06.736Z,60.50
2023-08-15T04:20:37.550Z,60.09
2023-08-15T04:23:05.015Z,59.95
2023-08-15T04:25:31.982Z,60.69
2023-08-15T04:27:58.711Z,60.72
2023-08-15T04:30:25.388Z,63.29
2023-08-15T04:32:54.637Z,60.88
2023-08-15T04:35:21.246Z,60.29
2023-08-15T04:37:47.856Z,60.46
2023-08-15T04:40:14.582Z,55.94
2023-08-15T04:42:41.623Z,60.32
2023-08-15T04:45:09.348Z,61.18
2023-08-15T04:47:36.350Z,62.93
2023-08-15T04:50:05.144Z,59.12
2023-08-15T04:52:31.803Z,62.37
2023-08-15T04:54:58.518Z,61.91
2023-08-15T04:57:25.262Z,60.63
2023-08-15T04:59:51.906Z,64.70
2023-08-15T05:02:18.520Z,63.25
2023-08-15T05:04:45.165Z,60.78
2023-08-15T05:07:13.141Z,60.08
2023-08-15T05:09:41.047Z,60.25
2023-08-15T05:12:08.290Z,60.50
2023-08-15T05:14:35.038Z,60.16
2023-08-15T05:17:01.701Z,59.95
2023-08-15T05:19:28.299Z,59.79
2023-08-15T05:21:56.947Z,65.53
2023-08-15T05:24:26.283Z,61.91
2023-08-15T05:26:53.160Z,64.27
2023-08-15T05:29:19.869Z,61.14
2023-08-15T05:31:46.501Z,60.46
2023-08-15T05:34:13.141Z,60.27
2023-08-15T05:36:39.804Z,60.60
2023-08-15T05:39:06.544Z,62.34
2023-08-15T05:41:34.621Z,65.53
2023-08-15T05:44:01.292Z,62.10
2023-08-15T05:46:27.952Z,63.27
2023-08-15T05:48:54.591Z,67.41
2023-08-15T05:51:21.235Z,67.61
2023-08-15T05:53:47.951Z,69.68
2023-08-15T05:56:14.637Z,68.27
2023-08-15T05:58:42.675Z,65.67
2023-08-15T06:01:09.522Z,64.43
2023-08-15T06:03:49.681Z,62.29
2023-08-15T06:06:19.021Z,60.50
2023-08-15T06:08:45.676Z,60.40
2023-08-15T06:11:12.273Z,62.80
2023-08-15T06:13:38.950Z,61.35
2023-08-15T06:16:06.925Z,61.86
2023-08-15T06:18:34.090Z,62.78
2023-08-15T06:21:00.718Z,60.43
2023-08-15T06:23:27.485Z,59.93
2023-08-15T06:25:54.169Z,62.12
2023-08-15T06:28:21.952Z,59.69
2023-08-15T06:30:48.634Z,57.50
2023-08-15T06:33:16.606Z,62.00
2023-08-15T06:35:43.277Z,59.57
2023-08-15T06:38:09.912Z,57.59
2023-08-15T06:40:36.803Z,57.58
2023-08-15T06:43:03.578Z,58.59
2023-08-15T06:45:30.220Z,58.26
2023-08-15T06:47:56.867Z,59.80
2023-08-15T06:50:24.840Z,59.35
2023-08-15T06:52:51.538Z,57.53
2023-08-15T06:55:18.418Z,56.16
2023-08-15T06:57:45.056Z,56.49
2023-08-15T07:00:13.535Z,53.63
2023-08-15T07:02:41.309Z,54.00
2023-08-15T07:05:08.625Z,54.27
2023-08-15T07:07:36.651Z,51.44
2023-08-15T07:10:03.574Z,53.10
2023-08-15T07:12:30.173Z,50.74
2023-08-15T07:14:56.797Z,49.93
2023-08-15T07:17:23.455Z,50.19
2023-08-15T07:19:50.106Z,47.90
2023-08-15T07:22:16.801Z,49.01
2023-08-15T07:24:44.811Z,48.22
2023-08-15T07:27:11.476Z,48.82
2023-08-15T07:29:38.161Z,48.48
2023-08-15T07:32:07.245Z,45.46
2023-08-15T07:34:34.013Z,49.93
2023-08-15T07:37:00.649Z,49.58
2023-08-15T07:39:27.269Z,48.85
2023-08-15T07:41:55.228Z,48.31
2023-08-15T07:44:21.938Z,43.72
2023-08-15T07:46:48.529Z,48.21
2023-08-15T07:49:15.762Z,48.79
2023-08-15T07:51:42.396Z,44.57
2023-08-15T07:54:09.043Z,47.79
2023-08-15T07:56:35.693Z,45.08
2023-08-15T07:59:04.492Z,44.37
2023-08-15T08:01:31.196Z,44.29
2023-08-15T08:03:58.317Z,47.03
2023-08-15T08:06:39.019Z,48.02
2023-08-15T08:09:07.237Z,46.30
2023-08-15T08:11:34.000Z,44.24
2023-08-15T08:14:00.645Z,46.85
2023-08-15T08:16:28.622Z,49.23
2023-08-15T08:18:55.282Z,47.68
2023-08-15T08:21:22.311Z,47.43
2023-08-15T08:23:48.951Z,43.39
2023-08-15T08:26:15.707Z,44.70
2023-08-15T08:28:42.351Z,44.48
2023-08-15T08:31:09.234Z,45.92
2023-08-15T08:33:37.266Z,47.24
2023-08-15T08:36:04.543Z,43.27
2023-08-15T08:38:31.276Z,40.53
2023-08-15T08:40:57.923Z,41.47
2023-08-15T08:43:24.655Z,42.95
2023-08-15T08:45:55.667Z,44.38
2023-08-15T08:48:23.278Z,45.00
2023-08-15T08:50:52.118Z,39.34
2023-08-15T08:53:18.841Z,37.73
2023-08-15T08:55:48.359Z,38.05
2023-08-15T08:58:15.735Z,40.54
2023-08-15T09:00:42.871Z,39.55
2023-08-15T09:03:10.881Z,39.91
2023-08-15T09:05:38.028Z,41.02
2023-08-15T09:08:07.385Z,42.12
2023-08-15T09:10:34.048Z,44.59
2023-08-15T09:13:01.287Z,49.61
2023-08-15T09:15:30.159Z,52.04
2023-08-15T09:18:00.215Z,50.58
2023-08-15T09:20:27.043Z,51.68
2023-08-15T09:22:57.032Z,52.83
2023-08-15T09:25:28.790Z,55.07
2023-08-15T09:27:55.806Z,56.08
2023-08-15T09:30:25.612Z,47.91
2023-08-15T09:32:52.302Z,49.05
2023-08-15T09:35:19.799Z,46.12
2023-08-15T09:37:48.153Z,48.40
2023-08-15T09:40:19.780Z,45.13
2023-08-15T09:42:47.888Z,43.50
2023-08-15T09:45:15.597Z,44.26
2023-08-15T09:47:43.360Z,43.48
2023-08-15T09:50:12.923Z,43.66
2023-08-15T09:52:41.974Z,40.50
2023-08-15T09:55:09.790Z,39.98
2023-08-15T09:57:36.915Z,42.37
2023-08-15T10:00:07.223Z,42.30
2023-08-15T10:02:43.604Z,44.01
2023-08-15T10:05:12.619Z,39.54
2023-08-15T10:07:43.245Z,47.17
2023-08-15T10:10:10.455Z,42.81
2023-08-15T10:12:39.196Z,46.44
2023-08-15T10:15:08.661Z,39.74
2023-08-15T10:17:36.397Z,44.89
2023-08-15T10:20:07.422Z,41.19
2023-08-15T10:22:35.380Z,40.46
2023-08-15T10:25:22.020Z,40.88
2023-08-15T10:27:50.545Z,41.99
2023-08-15T10:30:33.936Z,42.54
2023-08-15T10:33:02.703Z,40.11
2023-08-15T10:35:33.760Z,41.29
2023-08-15T10:38:14.316Z,45.84
2023-08-15T10:40:43.082Z,44.41
2023-08-15T10:43:13.965Z,52.06
2023-08-15T10:45:44.762Z,43.72
2023-08-15T10:48:11.840Z,39.33
2023-08-15T10:50:44.637Z,42.30
2023-08-15T10:53:11.334Z,40.82
2023-08-15T10:55:39.481Z,46.43
2023-08-15T10:58:08.393Z,43.16
2023-08-15T11:00:37.349Z,45.49
2023-08-15T11:03:07.876Z,43.23
2023-08-15T11:05:35.051Z,47.39
2023-08-15T11:08:12.808Z,44.07
2023-08-15T11:10:44.148Z,43.41
2023-08-15T11:13:11.253Z,45.75
2023-08-15T11:15:38.338Z,46.26
2023-08-15T11:18:06.551Z,39.36
2023-08-15T11:20:33.824Z,40.80
2023-08-15T11:23:00.948Z,44.62
2023-08-15T11:25:27.796Z,49.93
2023-08-15T11:27:54.562Z,53.45
2023-08-15T11:30:21.560Z,45.07
2023-08-15T11:32:49.803Z,47.75
2023-08-15T11:35:18.488Z,42.43
2023-08-15T11:37:45.193Z,44.39
2023-08-15T11:40:11.929Z,45.37
2023-08-15T11:42:39.118Z,45.32
2023-08-15T11:45:17.406Z,52.73
2023-08-15T11:47:56.114Z,53.37
2023-08-15T11:50:37.899Z,52.96
2023-08-15T11:53:11.831Z,50.15
2023-08-15T11:55:40.062Z,46.52
2023-08-15T11:58:29.052Z,50.23
2023-08-15T12:00:56.750Z,49.95
2023-08-15T12:03:26.156Z,48.69
2023-08-15T12:05:55.887Z,49.08
2023-08-15T12:08:26.517Z,53.58
2023-08-15T12:10:54.214Z,53.29
2023-08-15T12:13:29.770Z,55.73
2023-08-15T12:15:56.490Z,53.18
2023-08-15T12:18:23.205Z,52.94
2023-08-15T12:20:49.866Z,51.28
2023-08-15T12:23:23.138Z,51.90
2023-08-15T12:25:53.792Z,55.64
2023-08-15T12:28:20.434Z,54.96
2023-08-15T12:30:47.375Z,56.35
2023-08-15T12:33:18.364Z,56.31
2023-08-15T12:35:53.936Z,56.45
2023-08-15T12:38:21.960Z,57.36
2023-08-15T12:40:48.605Z,57.16
2023-08-15T12:43:15.321Z,57.20
2023-08-15T12:45:42.046Z,57.01
2023-08-15T12:48:08.911Z,58.05
2023-08-15T12:50:35.671Z,58.50
2023-08-15T12:53:02.349Z,58.80
2023-08-15T12:55:30.341Z,58.79
2023-08-15T12:57:57.008Z,59.75
2023-08-15T13:00:23.906Z,56.48
2023-08-15T13:02:50.964Z,59.44
2023-08-15T13:05:17.875Z,56.10
2023-08-15T13:07:44.550Z,55.88
2023-08-15T13:10:11.174Z,56.05
2023-08-15T13:12:39.128Z,56.32
2023-08-15T13:15:07.407Z,56.20
2023-08-15T13:17:34.103Z,56.32
2023-08-15T13:20:00.740Z,56.62
2023-08-15T13:22:27.468Z,56.80
2023-08-15T13:24:54.291Z,56.70
2023-08-15T13:27:20.996Z,56.71
2023-08-15T13:29:49.090Z,56.74
2023-08-15T13:32:15.730Z,56.73
2023-08-15T13:34:42.385Z,56.61
2023-08-15T13:37:09.015Z,56.81
2023-08-15T13:39:35.957Z,57.04
2023-08-15T13:42:02.680Z,57.00
2023-08-15T13:44:29.416Z,56.78
2023-08-15T13:46:57.451Z,56.33
2023-08-15T13:49:24.168Z,56.23
2023-08-15T13:51:50.808Z,56.67
2023-08-15T13:54:17.501Z,55.90
2023-08-15T13:56:44.152Z,56.61
2023-08-15T13:59:10.828Z,50.81
2023-08-15T14:01:37.527Z,56.82
2023-08-15T14:04:06.103Z,57.30
2023-08-15T14:06:32.831Z,55.84
2023-08-15T14:08:59.677Z,59.82
2023-08-15T14:11:26.433Z,64.12
2023-08-15T14:13:53.074Z,67.15
2023-08-15T14:16:20.010Z,67.43
2023-08-15T14:18:47.133Z,59.49
2023-08-15T14:21:15.888Z,58.08
2023-08-15T14:23:45.429Z,57.71
2023-08-15T14:26:12.299Z,66.34
2023-08-15T14:28:39.072Z,66.02
2023-08-15T14:31:05.873Z,62.07
2023-08-15T14:33:32.886Z,58.83
2023-08-15T14:35:59.754Z,59.23
2023-08-15T14:38:28.300Z,58.77
2023-08-15T14:40:55.046Z,58.61
2023-08-15T14:43:21.674Z,59.11
2023-08-15T14:45:48.309Z,58.58
2023-08-15T14:48:14.981Z,58.44
2023-08-15T14:50:42.485Z,58.48
2023-08-15T14:53:09.254Z,58.58
2023-08-15T14:55:37.287Z,58.68
2023-08-15T14:58:04.418Z,60.22
2023-08-15T15:00:31.056Z,72.60
2023-08-15T15:02:57.860Z,68.26
2023-08-15T15:05:24.610Z,61.94
2023-08-15T15:07:51.246Z,59.87
2023-08-15T15:10:17.938Z,59.50
2023-08-15T15:12:46.331Z,59.41
2023-08-15T15:15:13.188Z,59.05
2023-08-15T15:17:40.063Z,59.31
2023-08-15T15:20:08.006Z,58.78
2023-08-15T15:22:34.751Z,59.03
2023-08-15T15:25:01.524Z,58.96
2023-08-15T15:27:28.207Z,58.66
2023-08-15T15:29:56.209Z,60.40
2023-08-15T15:32:23.038Z,69.54
2023-08-15T15:34:49.982Z,62.55
2023-08-15T15:37:16.619Z,60.91
2023-08-15T15:39:43.276Z,58.76
2023-08-15T15:42:10.102Z,58.96
2023-08-15T15:44:37.003Z,59.21
2023-08-15T15:47:05.292Z,58.87
2023-08-15T15:49:31.976Z,58.72
2023-08-15T15:51:58.908Z,58.84
2023-08-15T15:54:25.569Z,59.74
2023-08-15T15:56:52.271Z,59.31
2023-08-15T15:59:19.718Z,66.94
2023-08-15T16:01:46.406Z,66.25
2023-08-15T16:04:14.434Z,64.26
2023-08-15T16:06:41.218Z,63.14
2023-08-15T16:09:07.916Z,59.58
2023-08-15T16:11:34.636Z,58.96
2023-08-15T16:14:01.290Z,64.15
2023-08-15T16:16:29.072Z,60.79
2023-08-15T16:18:55.694Z,59.19
2023-08-15T16:21:23.745Z,58.97
2023-08-15T16:23:50.444Z,60.95
2023-08-15T16:26:18.434Z,61.07
2023-08-15T16:28:46.219Z,59.63
2023-08-15T16:31:13.867Z,59.05
2023-08-15T16:33:40.519Z,59.23
2023-08-15T16:36:07.176Z,61.34
2023-08-15T16:38:35.190Z,59.55
2023-08-15T16:41:01.818Z,59.21
2023-08-15T16:43:28.525Z,59.08
2023-08-15T16:45:55.216Z,61.66
2023-08-15T16:48:21.984Z,60.52
2023-08-15T16:50:48.751Z,59.14
2023-08-15T16:53:15.725Z,59.74
2023-08-15T16:55:46.110Z,59.34
2023-08-15T16:58:13.828Z,59.44
2023-08-15T17:00:41.091Z,59.43
2023-08-15T17:03:07.986Z,63.13
2023-08-15T17:05:34.785Z,59.91
2023-08-15T17:08:01.416Z,59.80
2023-08-15T17:10:28.333Z,59.33
2023-08-15T17:12:56.694Z,59.34
2023-08-15T17:15:23.291Z,59.34
2023-08-15T17:17:50.211Z,59.71
2023-08-15T17:20:17.074Z,60.61
2023-08-15T17:22:45.309Z,59.82
2023-08-15T17:25:11.936Z,59.92
2023-08-15T17:27:38.580Z,60.69
2023-08-15T17:30:07.912Z,60.92
2023-08-15T17:32:34.606Z,61.38
2023-08-15T17:35:01.273Z,62.65
2023-08-15T17:37:28.068Z,62.16
2023-08-15T17:39:54.701Z,61.45
2023-08-15T17:42:21.553Z,60.70
2023-08-15T17:44:48.557Z,60.54
2023-08-15T17:47:16.542Z,72.55
2023-08-15T17:49:43.198Z,64.27
2023-08-15T17:52:10.141Z,61.98
2023-08-15T17:54:36.785Z,64.13
2023-08-15T17:57:05.314Z,61.81
2023-08-15T17:59:32.023Z,61.44
2023-08-15T18:02:00.835Z,61.13
2023-08-15T18:04:29.298Z,61.32
2023-08-15T18:06:55.978Z,61.58
2023-08-15T18:09:25.786Z,62.97
2023-08-15T18:11:52.800Z,64.86
2023-08-15T18:14:20.341Z,62.08
2023-08-15T18:16:48.897Z,63.07
2023-08-15T18:19:19.456Z,65.42
2023-08-15T18:21:47.544Z,67.30
2023-08-15T18:24:14.219Z,65.69
2023-08-15T18:26:40.867Z,63.74
2023-08-15T18:29:07.494Z,62.01
2023-08-15T18:31:34.148Z,61.11
2023-08-15T18:34:00.821Z,60.36
2023-08-15T18:36:27.448Z,61.54
2023-08-15T18:38:55.432Z,61.28
2023-08-15T18:41:22.166Z,61.21
2023-08-15T18:43:48.793Z,61.43
2023-08-15T18:46:15.510Z,61.55
2023-08-15T18:48:42.193Z,61.21
2023-08-15T18:51:08.866Z,60.79
2023-08-15T18:53:35.513Z,61.30
2023-08-15T18:56:03.529Z,60.96
2023-08-15T18:58:31.369Z,61.78
2023-08-15T19:00:58.054Z,61.36
2023-08-15T19:03:25.464Z,65.90
2023-08-15T19:05:52.604Z,62.19
2023-08-15T19:08:19.285Z,60.97
2023-08-15T19:10:45.953Z,62.68
2023-08-15T19:13:14.002Z,61.08
2023-08-15T19:15:40.715Z,61.25
2023-08-15T19:18:07.621Z,60.23
2023-08-15T19:20:34.356Z,61.10
2023-08-15T19:23:01.147Z,61.55
2023-08-15T19:25:29.180Z,62.47
2023-08-15T19:27:55.910Z,62.03
2023-08-15T19:30:24.345Z,65.44
2023-08-15T19:32:51.495Z,62.28
2023-08-15T19:35:18.304Z,64.04
2023-08-15T19:37:45.289Z,63.63
2023-08-15T19:40:12.679Z,61.82
2023-08-15T19:42:42.342Z,61.04
2023-08-15T19:45:10.577Z,62.13
2023-08-15T19:47:39.215Z,64.50
2023-08-15T19:50:08.246Z,59.58
2023-08-15T19:52:35.284Z,61.75
2023-08-15T19:55:04.225Z,62.65
2023-08-15T19:57:36.156Z,63.21
2023-08-15T20:00:02.974Z,61.57
2023-08-15T20:02:29.667Z,63.88
2023-08-15T20:04:57.760Z,63.77
2023-08-15T20:07:24.647Z,60.42
2023-08-15T20:10:04.106Z,63.20
2023-08-15T20:12:35.478Z,64.29
2023-08-15T20:15:02.195Z,62.59
2023-08-15T20:17:31.862Z,61.46
2023-08-15T20:20:00.290Z,61.44
2023-08-15T20:22:27.371Z,61.37
2023-08-15T20:24:54.636Z,61.36
2023-08-15T20:27:21.868Z,61.27
2023-08-15T20:29:51.461Z,61.17
2023-08-15T20:32:18.191Z,60.98
2023-08-15T20:34:44.887Z,60.86
2023-08-15T20:37:12.879Z,61.08
2023-08-15T20:39:39.581Z,60.75
2023-08-15T20:42:06.280Z,60.55
2023-08-15T20:44:33.116Z,62.31
2023-08-15T20:47:00.383Z,62.09
2023-08-15T20:49:27.235Z,61.87
2023-08-15T20:51:54.066Z,61.78
2023-08-15T20:54:22.082Z,59.40
2023-08-15T20:56:48.837Z,61.16
2023-08-15T20:59:15.496Z,61.91
2023-08-15T21:01:42.564Z,61.36
2023-08-15T21:04:09.309Z,60.67
2023-08-15T21:06:36.036Z,62.89
2023-08-15T21:09:02.777Z,63.64
2023-08-15T21:11:30.847Z,61.57
2023-08-15T21:13:58.915Z,61.61
2023-08-15T21:16:25.611Z,58.39
2023-08-15T21:18:52.230Z,66.99
2023-08-15T21:21:18.921Z,60.20
2023-08-15T21:23:45.538Z,62.75
2023-08-15T21:26:12.622Z,61.29
2023-08-15T21:28:40.646Z,62.58
2023-08-15T21:31:07.453Z,62.01
2023-08-15T21:33:34.254Z,61.28
2023-08-15T21:36:02.921Z,61.09
2023-08-15T21:38:29.572Z,64.79
2023-08-15T21:40:56.262Z,72.53
2023-08-15T21:43:22.894Z,74.90
2023-08-15T21:45:50.894Z,75.09
2023-08-15T21:48:17.646Z,71.42
2023-08-15T21:50:44.285Z,65.38
2023-08-15T21:53:11.008Z,63.22
2023-08-15T21:55:37.653Z,61.94
2023-08-15T21:58:04.565Z,62.05
2023-08-15T22:00:31.371Z,61.73
2023-08-15T22:02:59.413Z,61.66
2023-08-15T22:05:26.619Z,61.73
2023-08-15T22:07:53.761Z,62.99
2023-08-15T22:10:21.532Z,61.80
2023-08-15T22:12:49.895Z,59.99
2023-08-15T22:15:18.197Z,61.99
2023-08-15T22:17:50.367Z,61.67
2023-08-15T22:20:22.618Z,62.00
2023-08-15T22:22:49.466Z,61.85
2023-08-15T22:25:21.292Z,61.38
2023-08-15T22:27:49.831Z,61.29
2023-08-15T22:30:16.527Z,60.83
2023-08-15T22:32:43.150Z,61.75
2023-08-15T22:35:10.386Z,61.31
2023-08-15T22:37:38.355Z,63.21
2023-08-15T22:40:06.199Z,63.51
2023-08-15T22:42:32.851Z,62.26
2023-08-15T22:44:59.579Z,61.52
2023-08-15T22:47:26.315Z,60.94
2023-08-15T22:49:52.943Z,61.43
2023-08-15T22:52:19.548Z,61.87
2023-08-15T22:54:47.672Z,61.96
2023-08-15T22:57:14.331Z,61.42
2023-08-15T22:59:40.942Z,61.19
2023-08-15T23:02:07.563Z,61.36
2023-08-15T23:04:34.232Z,61.11
2023-08-15T23:07:01.021Z,60.96
2023-08-15T23:09:27.646Z,60.57
2023-08-15T23:11:55.626Z,61.15
2023-08-15T23:14:22.286Z,61.27
2023-08-15T23:16:48.893Z,62.22
2023-08-15T23:19:15.570Z,61.98
2023-08-15T23:21:42.666Z,61.85
2023-08-15T23:24:10.219Z,61.62
2023-08-15T23:26:37.149Z,61.13
2023-08-15T23:29:05.526Z,61.07
2023-08-15T23:31:33.597Z,62.07
2023-08-15T23:34:00.506Z,61.97
2023-08-15T23:36:27.278Z,62.18
2023-08-15T23:38:53.908Z,62.57
2023-08-15T23:41:20.503Z,61.61
2023-08-15T23:43:47.222Z,61.27
2023-08-15T23:46:16.160Z,61.13
2023-08-15T23:48:43.553Z,61.43
2023-08-15T23:51:10.221Z,61.98
2023-08-15T23:53:36.856Z,62.21
2023-08-15T23:56:04.169Z,61.30
2023-08-15T23:58:30.866Z,61.80
